Time;durP1;ratioP1;P1;durP2;ratioP2;P2;SDS_P1;SDS_P2;PMS_P1;PMS_P2;Temp;Humidity;BMP_temperature;BMP_pressure;BME280_temperature;BME280_humidity;BME280_pressure;Samples;Min_cycle;Max_cycle;Signal;HPM_P1;HPM_P2
2023/05/10 00:01:10;;;;;;;15.00;11.50;;;;;;;;;;5046515;28;20236;-74
2023/05/10 00:03:36;;;;;;;14.48;11.02;;;;;;;;;;5033655;28;20316;-76
2023/05/10 00:06:01;;;;;;;13.10;10.10;;;;;;;;;;5046721;28;20687;-74
2023/05/10 00:08:26;;;;;;;13.27;9.52;;;;;;;;;;5043693;28;20189;-74
2023/05/10 00:10:52;;;;;;;10.85;8.88;;;;;;;;;;5034811;28;20567;-74
2023/05/10 00:13:18;;;;;;;12.73;10.13;;;;;;;;;;5046011;28;20208;-74
2023/05/10 00:15:43;;;;;;;14.45;10.70;;;;;;;;;;5029691;28;20186;-73
2023/05/10 00:18:08;;;;;;;15.50;10.85;;;;;;;;;;5039184;28;20193;-74
2023/05/10 00:20:34;;;;;;;16.20;11.55;;;;;;;;;;5046447;28;20656;-73
2023/05/10 00:22:59;;;;;;;18.05;11.38;;;;;;;;;;5048614;28;20185;-74
2023/05/10 00:25:25;;;;;;;16.60;11.88;;;;;;;;;;5042343;28;20198;-74
2023/05/10 00:27:50;;;;;;;15.65;11.82;;;;;;;;;;5018501;28;20194;-73
2023/05/10 00:30:16;;;;;;;17.15;12.70;;;;;;;;;;5045585;28;20193;-74
2023/05/10 00:32:41;;;;;;;18.20;13.50;;;;;;;;;;5059987;28;20203;-73
2023/05/10 00:35:07;;;;;;;18.70;12.98;;;;;;;;;;5051212;28;20264;-73
2023/05/10 00:37:33;;;;;;;19.95;13.85;;;;;;;;;;5048943;28;20189;-73
2023/05/10 00:39:58;;;;;;;19.63;13.52;;;;;;;;;;5031423;28;20220;-74
2023/05/10 00:42:23;;;;;;;20.35;14.02;;;;;;;;;;5055846;28;20212;-74
2023/05/10 00:44:49;;;;;;;21.20;14.48;;;;;;;;;;5048896;28;20196;-73
2023/05/10 00:47:15;;;;;;;20.17;14.25;;;;;;;;;;5043955;28;20248;-73
2023/05/10 00:49:41;;;;;;;20.23;14.32;;;;;;;;;;5034591;28;20197;-73
2023/05/10 00:52:07;;;;;;;23.33;14.20;;;;;;;;;;5036847;28;20333;-73
2023/05/10 00:54:33;;;;;;;24.10;15.48;;;;;;;;;;5036652;28;20233;-73
2023/05/10 00:56:58;;;;;;;23.35;15.50;;;;;;;;;;5043803;28;20185;-73
2023/05/10 00:59:24;;;;;;;23.10;15.13;;;;;;;;;;5029205;28;20224;-74
2023/05/10 01:01:51;;;;;;;20.95;15.20;;;;;;;;;;5041858;28;20256;-74
2023/05/10 01:04:19;;;;;;;20.50;14.85;;;;;;;;;;5028880;28;20608;-73
2023/05/10 01:06:45;;;;;;;22.95;14.65;;;;;;;;;;5041035;28;20232;-72
2023/05/10 01:09:11;;;;;;;22.85;15.35;;;;;;;;;;5022841;28;20209;-73
2023/05/10 01:11:38;;;;;;;20.85;14.65;;;;;;;;;;5039251;28;20197;-72
2023/05/10 01:14:04;;;;;;;21.92;15.18;;;;;;;;;;5047145;28;20193;-73
2023/05/10 01:16:33;;;;;;;22.17;15.45;;;;;;;;;;5043915;28;20200;-73
2023/05/10 01:18:58;;;;;;;23.63;15.77;;;;;;;;;;5042541;28;20380;-72
2023/05/10 01:21:47;;;;;;;23.88;15.63;;;;;;;;;;5039738;28;20776;-72
2023/05/10 01:24:28;;;;;;;24.55;16.10;;;;;;;;;;5036348;28;20629;-72
2023/05/10 01:27:17;;;;;;;21.63;15.07;;;;;;;;;;5045565;28;20228;-72
2023/05/10 01:30:07;;;;;;;20.98;15.13;;;;;;;;;;5030783;28;20205;-72
2023/05/10 01:32:51;;;;;;;22.98;15.27;;;;;;;;;;5044527;28;20283;-73
2023/05/10 01:35:20;;;;;;;24.30;15.80;;;;;;;;;;5031662;28;20197;-72
2023/05/10 01:38:03;;;;;;;23.08;15.35;;;;;;;;;;5045265;28;20645;-74
2023/05/10 01:40:32;;;;;;;26.30;15.35;;;;;;;;;;5034665;28;20229;-73
2023/05/10 01:43:05;;;;;;;23.85;15.50;;;;;;;;;;5045323;28;20189;-72
2023/05/10 01:45:47;;;;;;;22.55;14.85;;;;;;;;;;5044571;28;20463;-73
2023/05/10 01:48:14;;;;;;;25.92;15.68;;;;;;;;;;5034304;28;20649;-73
2023/05/10 01:50:43;;;;;;;26.90;16.35;;;;;;;;;;5051571;28;20177;-73
2023/05/10 01:53:11;;;;;;;24.52;16.40;;;;;;;;;;5034017;28;20182;-73
2023/05/10 01:55:45;;;;;;;25.48;15.82;;;;;;;;;;5034475;28;20190;-72
2023/05/10 01:58:22;;;;;;;27.35;16.83;;;;;;;;;;5044218;28;20273;-73
2023/05/10 02:00:50;;;;;;;26.60;15.85;;;;;;;;;;5031733;28;20265;-73
2023/05/10 02:03:17;;;;;;;26.08;16.15;;;;;;;;;;5049320;28;20204;-73
2023/05/10 02:05:44;;;;;;;23.67;15.50;;;;;;;;;;5050318;28;20261;-73
2023/05/10 02:08:11;;;;;;;25.88;15.77;;;;;;;;;;5033050;28;20271;-73
2023/05/10 02:10:39;;;;;;;25.63;16.08;;;;;;;;;;5030604;28;20190;-72
2023/05/10 02:13:07;;;;;;;26.70;15.88;;;;;;;;;;5043709;28;20205;-73
2023/05/10 02:15:33;;;;;;;30.23;16.17;;;;;;;;;;5040705;28;20200;-73
2023/05/10 02:18:00;;;;;;;25.67;15.60;;;;;;;;;;5046688;28;20275;-73
2023/05/10 02:20:26;;;;;;;25.67;16.35;;;;;;;;;;5054382;28;20217;-73
2023/05/10 02:22:53;;;;;;;27.20;16.25;;;;;;;;;;5044527;28;20254;-73
2023/05/10 02:25:21;;;;;;;27.45;16.70;;;;;;;;;;5037352;28;20201;-73
2023/05/10 02:27:47;;;;;;;28.08;16.10;;;;;;;;;;5049439;28;20276;-73
2023/05/10 02:30:13;;;;;;;25.48;16.30;;;;;;;;;;5045798;28;20265;-72
2023/05/10 02:32:39;;;;;;;26.42;16.65;;;;;;;;;;5048392;28;20192;-73
2023/05/10 02:35:05;;;;;;;30.25;17.40;;;;;;;;;;5044698;28;20189;-72
2023/05/10 02:37:32;;;;;;;28.55;17.55;;;;;;;;;;5044114;28;20193;-72
2023/05/10 02:39:58;;;;;;;32.80;17.42;;;;;;;;;;5044585;28;20566;-72
2023/05/10 02:42:26;;;;;;;31.48;17.63;;;;;;;;;;5046466;28;20193;-72
2023/05/10 02:44:56;;;;;;;28.38;17.17;;;;;;;;;;5044871;28;21021;-72
2023/05/10 02:47:22;;;;;;;27.60;16.58;;;;;;;;;;5044470;28;20999;-72
2023/05/10 02:49:47;;;;;;;26.15;16.52;;;;;;;;;;5047060;28;20186;-72
2023/05/10 02:52:16;;;;;;;29.65;16.80;;;;;;;;;;5039135;28;20649;-72
2023/05/10 02:54:46;;;;;;;30.65;16.50;;;;;;;;;;5045441;28;20193;-72
2023/05/10 02:57:18;;;;;;;31.33;17.77;;;;;;;;;;5045664;28;20193;-72
2023/05/10 02:59:44;;;;;;;27.50;16.98;;;;;;;;;;5042498;28;20555;-72
2023/05/10 03:02:12;;;;;;;30.75;17.05;;;;;;;;;;5043093;28;20209;-72
2023/05/10 03:04:37;;;;;;;31.02;17.15;;;;;;;;;;5033975;28;20586;-71
2023/05/10 03:07:03;;;;;;;32.53;16.83;;;;;;;;;;5041957;28;20233;-72
2023/05/10 03:09:29;;;;;;;31.92;17.35;;;;;;;;;;5043817;28;20466;-72
2023/05/10 03:11:54;;;;;;;29.83;17.98;;;;;;;;;;5043097;28;20193;-71
2023/05/10 03:14:57;;;;;;;31.27;17.55;;;;;;;;;;5045326;28;20687;-71
2023/05/10 03:17:40;;;;;;;35.25;17.85;;;;;;;;;;5045108;28;20504;-71
2023/05/10 03:20:12;;;;;;;34.33;18.20;;;;;;;;;;5043789;28;20575;-70
2023/05/10 03:22:44;;;;;;;38.03;20.02;;;;;;;;;;5036782;28;20197;-71
2023/05/10 03:25:11;;;;;;;38.47;20.42;;;;;;;;;;5037243;28;20260;-70
2023/05/10 03:27:40;;;;;;;35.58;19.13;;;;;;;;;;5044054;28;20588;-70
2023/05/10 03:30:08;;;;;;;38.70;19.55;;;;;;;;;;5045796;28;20217;-70
2023/05/10 03:32:34;;;;;;;47.03;22.42;;;;;;;;;;5041652;28;20205;-70
2023/05/10 03:34:59;;;;;;;41.95;21.55;;;;;;;;;;5046215;28;20255;-70
2023/05/10 03:37:25;;;;;;;42.35;21.38;;;;;;;;;;5046053;28;20193;-70
2023/05/10 03:39:50;;;;;;;40.85;21.00;;;;;;;;;;5047972;28;20538;-70
2023/05/10 03:42:17;;;;;;;50.65;22.95;;;;;;;;;;5045281;28;20200;-70
2023/05/10 03:44:43;;;;;;;49.45;24.00;;;;;;;;;;5048526;28;20189;-69
2023/05/10 03:47:08;;;;;;;51.55;23.67;;;;;;;;;;5046125;28;20557;-69
2023/05/10 03:49:33;;;;;;;47.50;23.35;;;;;;;;;;5040027;28;20680;-69
2023/05/10 03:51:59;;;;;;;51.97;25.38;;;;;;;;;;5035109;28;20189;-69
2023/05/10 03:54:24;;;;;;;49.65;22.85;;;;;;;;;;5042727;28;20202;-69
2023/05/10 03:56:49;;;;;;;53.88;25.08;;;;;;;;;;5040634;28;20186;-69
2023/05/10 03:59:15;;;;;;;56.45;26.10;;;;;;;;;;5037243;28;20237;-71
2023/05/10 04:01:40;;;;;;;55.53;26.02;;;;;;;;;;5041793;28;20723;-70
2023/05/10 04:04:06;;;;;;;59.67;27.25;;;;;;;;;;5042781;28;20660;-69
2023/05/10 04:06:31;;;;;;;58.10;27.30;;;;;;;;;;5044322;28;20231;-69
2023/05/10 04:08:59;;;;;;;55.65;25.60;;;;;;;;;;5036693;28;20216;-69
2023/05/10 04:11:25;;;;;;;60.38;26.60;;;;;;;;;;5034387;28;20198;-69
2023/05/10 04:13:50;;;;;;;65.18;28.90;;;;;;;;;;5044013;28;20575;-69
2023/05/10 04:16:16;;;;;;;62.08;28.02;;;;;;;;;;5047142;28;20549;-70
2023/05/10 04:18:41;;;;;;;56.13;27.52;;;;;;;;;;5046167;28;20208;-69
2023/05/10 04:21:16;;;;;;;67.45;29.65;;;;;;;;;;5032203;28;20205;-69
2023/05/10 04:23:41;;;;;;;65.57;27.27;;;;;;;;;;5041187;28;20208;-69
2023/05/10 04:26:07;;;;;;;67.50;30.20;;;;;;;;;;5035131;28;20201;-69
2023/05/10 04:28:32;;;;;;;64.72;28.75;;;;;;;;;;5039645;28;20443;-69
2023/05/10 04:31:10;;;;;;;77.97;31.35;;;;;;;;;;5041992;28;20266;-69
2023/05/10 04:33:37;;;;;;;70.47;31.30;;;;;;;;;;5039449;28;20196;-70
2023/05/10 04:36:03;;;;;;;71.70;30.90;;;;;;;;;;5044445;28;20270;-69
2023/05/10 04:38:28;;;;;;;79.75;30.85;;;;;;;;;;5038493;28;20633;-72
2023/05/10 04:40:54;;;;;;;76.63;31.17;;;;;;;;;;5041963;28;20336;-71
2023/05/10 04:43:20;;;;;;;73.03;31.13;;;;;;;;;;5040619;28;20683;-73
2023/05/10 04:45:45;;;;;;;69.85;29.48;;;;;;;;;;5039170;28;20229;-73
2023/05/10 04:48:11;;;;;;;74.25;30.88;;;;;;;;;;5044672;28;20272;-72
2023/05/10 04:50:37;;;;;;;77.30;31.70;;;;;;;;;;5047145;28;20205;-72
2023/05/10 04:53:03;;;;;;;79.75;31.98;;;;;;;;;;5049988;28;20208;-73
2023/05/10 04:55:28;;;;;;;76.63;30.17;;;;;;;;;;5050202;28;20221;-72
2023/05/10 04:57:56;;;;;;;79.15;31.33;;;;;;;;;;5041901;28;20200;-72
2023/05/10 05:00:22;;;;;;;89.63;34.00;;;;;;;;;;5045052;28;20221;-72
2023/05/10 05:02:47;;;;;;;90.07;34.50;;;;;;;;;;5042558;28;20186;-72
2023/05/10 05:05:12;;;;;;;92.85;35.63;;;;;;;;;;5043902;28;20677;-72
2023/05/10 05:07:38;;;;;;;101.45;36.28;;;;;;;;;;5045810;28;20181;-71
2023/05/10 05:10:05;;;;;;;104.05;36.15;;;;;;;;;;5044672;28;20196;-71
2023/05/10 05:12:31;;;;;;;99.43;36.20;;;;;;;;;;5041972;28;20262;-71
2023/05/10 05:14:56;;;;;;;99.18;36.92;;;;;;;;;;5040832;28;20578;-71
2023/05/10 05:17:21;;;;;;;108.07;38.25;;;;;;;;;;5046459;28;20201;-71
2023/05/10 05:19:47;;;;;;;113.55;39.67;;;;;;;;;;5037297;28;20469;-71
2023/05/10 05:22:12;;;;;;;117.55;38.42;;;;;;;;;;5038965;28;20654;-71
2023/05/10 05:24:37;;;;;;;111.50;38.67;;;;;;;;;;5051692;28;20489;-71
2023/05/10 05:27:03;;;;;;;108.30;37.63;;;;;;;;;;5040916;28;20193;-71
2023/05/10 05:29:29;;;;;;;110.50;40.33;;;;;;;;;;5040273;28;20189;-71
2023/05/10 05:31:54;;;;;;;104.68;39.60;;;;;;;;;;5035868;28;20621;-71
2023/05/10 05:34:21;;;;;;;106.53;39.50;;;;;;;;;;5040649;28;20198;-71
2023/05/10 05:36:47;;;;;;;106.43;40.60;;;;;;;;;;5043994;28;20279;-71
2023/05/10 05:39:13;;;;;;;104.20;40.50;;;;;;;;;;5039770;28;20621;-71
2023/05/10 05:41:38;;;;;;;105.30;39.60;;;;;;;;;;5042749;28;20190;-70
2023/05/10 05:44:03;;;;;;;106.47;39.97;;;;;;;;;;5035840;28;20181;-71
2023/05/10 05:46:29;;;;;;;102.15;37.72;;;;;;;;;;5052513;28;20240;-71
2023/05/10 05:48:54;;;;;;;106.90;39.45;;;;;;;;;;5039242;28;20250;-71
2023/05/10 05:51:20;;;;;;;102.75;39.70;;;;;;;;;;5035399;28;20186;-71
2023/05/10 05:53:45;;;;;;;113.60;40.42;;;;;;;;;;5047686;28;20269;-72
2023/05/10 05:56:10;;;;;;;99.72;38.20;;;;;;;;;;5048407;28;20844;-71
2023/05/10 05:58:36;;;;;;;107.43;41.53;;;;;;;;;;5044560;28;20216;-71
2023/05/10 06:01:01;;;;;;;101.68;39.20;;;;;;;;;;5044326;28;20267;-71
2023/05/10 06:03:26;;;;;;;107.43;40.92;;;;;;;;;;5039331;28;20194;-71
2023/05/10 06:05:52;;;;;;;103.40;39.13;;;;;;;;;;5043344;28;20301;-71
2023/05/10 06:08:17;;;;;;;104.70;40.40;;;;;;;;;;5042484;28;20197;-71
2023/05/10 06:10:43;;;;;;;100.25;39.63;;;;;;;;;;5034444;28;20634;-71
2023/05/10 06:13:08;;;;;;;92.40;38.15;;;;;;;;;;5043385;28;20189;-71
2023/05/10 06:15:34;;;;;;;97.10;39.08;;;;;;;;;;5032120;28;20186;-71
2023/05/10 06:17:59;;;;;;;99.15;38.33;;;;;;;;;;5041842;28;20243;-72
2023/05/10 06:20:25;;;;;;;92.38;37.33;;;;;;;;;;5044255;28;20205;-71
2023/05/10 06:22:50;;;;;;;96.32;38.45;;;;;;;;;;5046443;28;20553;-71
2023/05/10 06:25:17;;;;;;;94.20;37.53;;;;;;;;;;5041431;28;20931;-71
2023/05/10 06:27:43;;;;;;;87.88;36.75;;;;;;;;;;5047618;28;20197;-71
2023/05/10 06:30:09;;;;;;;76.53;36.03;;;;;;;;;;5039643;28;20182;-71
2023/05/10 06:32:34;;;;;;;84.25;36.22;;;;;;;;;;5033380;28;20186;-71
2023/05/10 06:35:00;;;;;;;73.22;33.22;;;;;;;;;;5033337;28;20218;-70
2023/05/10 06:37:25;;;;;;;75.15;33.53;;;;;;;;;;5031237;28;20217;-71
2023/05/10 06:39:50;;;;;;;85.85;35.58;;;;;;;;;;5042541;28;20441;-71
2023/05/10 06:42:16;;;;;;;79.95;33.78;;;;;;;;;;5040335;28;20616;-71
2023/05/10 06:44:41;;;;;;;75.78;32.53;;;;;;;;;;5045059;28;20247;-71
2023/05/10 06:47:07;;;;;;;77.57;33.35;;;;;;;;;;5037787;28;20225;-71
2023/05/10 06:49:32;;;;;;;75.88;34.00;;;;;;;;;;5043780;28;20187;-71
2023/05/10 06:51:57;;;;;;;70.82;31.83;;;;;;;;;;5035610;28;20221;-71
2023/05/10 06:54:23;;;;;;;72.07;33.88;;;;;;;;;;5037116;28;20293;-72
2023/05/10 06:56:48;;;;;;;65.60;31.17;;;;;;;;;;5038142;28;20185;-71
2023/05/10 06:59:16;;;;;;;68.28;32.42;;;;;;;;;;5038141;28;20217;-71
2023/05/10 07:01:41;;;;;;;71.97;31.85;;;;;;;;;;5032438;28;20782;-71
2023/05/10 07:04:07;;;;;;;57.83;29.30;;;;;;;;;;5045954;28;20217;-70
2023/05/10 07:06:33;;;;;;;61.72;29.52;;;;;;;;;;5034871;28;20185;-71
2023/05/10 07:08:59;;;;;;;56.95;28.45;;;;;;;;;;5044860;28;20190;-69
2023/05/10 07:11:24;;;;;;;58.88;29.20;;;;;;;;;;5029212;28;20528;-71
2023/05/10 07:13:50;;;;;;;65.72;29.77;;;;;;;;;;5037602;28;20541;-70
2023/05/10 07:16:15;;;;;;;64.80;29.92;;;;;;;;;;5048770;28;20304;-70
2023/05/10 07:18:40;;;;;;;62.15;29.95;;;;;;;;;;5048239;28;20383;-70
2023/05/10 07:21:06;;;;;;;59.17;29.58;;;;;;;;;;5047713;28;20205;-70
2023/05/10 07:23:31;;;;;;;60.13;28.10;;;;;;;;;;5046980;28;20201;-70
2023/05/10 07:25:57;;;;;;;57.58;29.80;;;;;;;;;;5044110;28;20562;-71
2023/05/10 07:28:24;;;;;;;51.28;27.05;;;;;;;;;;5055043;28;20202;-70
2023/05/10 07:30:49;;;;;;;51.88;26.23;;;;;;;;;;5032326;28;20638;-70
2023/05/10 07:33:15;;;;;;;51.38;26.02;;;;;;;;;;5031959;28;20189;-70
2023/05/10 07:35:41;;;;;;;52.75;27.17;;;;;;;;;;5035801;28;20240;-70
2023/05/10 07:38:06;;;;;;;52.67;26.45;;;;;;;;;;5045587;28;20178;-70
2023/05/10 07:40:32;;;;;;;45.15;25.52;;;;;;;;;;5038757;28;20209;-70
2023/05/10 07:42:58;;;;;;;52.55;26.02;;;;;;;;;;5038270;28;20194;-69
2023/05/10 07:45:23;;;;;;;53.55;26.58;;;;;;;;;;5032148;28;20206;-70
2023/05/10 07:47:49;;;;;;;50.58;25.67;;;;;;;;;;5034313;28;20244;-70
2023/05/10 07:50:15;;;;;;;50.10;27.13;;;;;;;;;;5042658;28;20257;-70
2023/05/10 07:52:40;;;;;;;56.45;28.42;;;;;;;;;;5036536;28;20205;-70
2023/05/10 07:55:07;;;;;;;57.22;28.08;;;;;;;;;;5037269;28;20209;-67
2023/05/10 07:57:33;;;;;;;53.35;27.33;;;;;;;;;;5038042;28;20202;-69
2023/05/10 07:59:59;;;;;;;60.75;28.40;;;;;;;;;;5035462;28;20347;-68
2023/05/10 08:02:25;;;;;;;60.70;30.10;;;;;;;;;;5034822;28;20610;-68
2023/05/10 08:04:50;;;;;;;52.78;27.38;;;;;;;;;;5045827;28;20653;-69
2023/05/10 08:07:16;;;;;;;54.28;27.50;;;;;;;;;;5045905;28;20273;-69
2023/05/10 08:09:41;;;;;;;57.55;29.38;;;;;;;;;;5039354;28;20236;-69
2023/05/10 08:12:06;;;;;;;63.80;31.70;;;;;;;;;;5037544;28;20186;-69
2023/05/10 08:14:32;;;;;;;61.90;30.40;;;;;;;;;;5048024;28;20193;-69
2023/05/10 08:16:57;;;;;;;62.13;30.50;;;;;;;;;;5037255;28;20201;-68
2023/05/10 08:19:23;;;;;;;62.58;31.02;;;;;;;;;;5034892;28;20256;-70
2023/05/10 08:21:48;;;;;;;61.58;29.45;;;;;;;;;;5034081;28;20181;-68
2023/05/10 08:24:14;;;;;;;55.85;28.10;;;;;;;;;;5030863;28;20200;-69
2023/05/10 08:26:39;;;;;;;57.33;29.83;;;;;;;;;;5028298;28;20568;-68
2023/05/10 08:29:05;;;;;;;52.47;29.25;;;;;;;;;;5040554;28;20190;-69
2023/05/10 08:31:30;;;;;;;56.70;28.58;;;;;;;;;;5044169;28;20617;-69
2023/05/10 08:33:56;;;;;;;54.03;28.13;;;;;;;;;;5042778;28;20300;-69
2023/05/10 08:36:23;;;;;;;53.38;27.98;;;;;;;;;;5028576;28;20201;-68
2023/05/10 08:38:50;;;;;;;52.78;26.38;;;;;;;;;;5034375;28;20193;-69
2023/05/10 08:41:16;;;;;;;45.47;23.65;;;;;;;;;;5046806;28;20621;-69
2023/05/10 08:43:46;;;;;;;42.83;21.48;;;;;;;;;;5036684;28;20193;-69
2023/05/10 08:46:17;;;;;;;35.42;18.60;;;;;;;;;;5044102;28;20247;-69
2023/05/10 08:48:47;;;;;;;33.03;17.85;;;;;;;;;;5045404;28;20200;-69
2023/05/10 08:51:20;;;;;;;38.85;19.92;;;;;;;;;;5036517;28;20256;-70
2023/05/10 08:53:46;;;;;;;38.22;20.05;;;;;;;;;;5045280;28;20222;-69
2023/05/10 08:56:12;;;;;;;33.33;18.02;;;;;;;;;;5038877;28;20908;-69
2023/05/10 08:58:38;;;;;;;38.63;19.10;;;;;;;;;;5046465;28;20885;-68
2023/05/10 09:01:05;;;;;;;38.75;19.15;;;;;;;;;;5041468;28;20698;-69
2023/05/10 09:03:31;;;;;;;33.17;19.10;;;;;;;;;;5047097;28;20186;-69
2023/05/10 09:05:57;;;;;;;30.00;17.48;;;;;;;;;;5043241;28;20197;-69
2023/05/10 09:08:26;;;;;;;28.95;16.77;;;;;;;;;;5045619;28;20556;-70
2023/05/10 09:10:52;;;;;;;30.30;16.98;;;;;;;;;;5032096;28;20327;-70
2023/05/10 09:13:18;;;;;;;19.75;11.95;;;;;;;;;;5042556;28;20704;-69
2023/05/10 09:15:45;;;;;;;21.63;12.15;;;;;;;;;;5034492;28;20200;-69
2023/05/10 09:18:10;;;;;;;21.45;12.40;;;;;;;;;;5031432;28;20243;-69
2023/05/10 09:20:35;;;;;;;19.42;11.55;;;;;;;;;;5049166;28;20249;-70
2023/05/10 09:23:01;;;;;;;20.73;11.95;;;;;;;;;;5042454;28;20185;-70
2023/05/10 09:25:26;;;;;;;20.00;11.18;;;;;;;;;;5045281;28;20254;-70
2023/05/10 09:27:52;;;;;;;16.50;10.45;;;;;;;;;;5052198;28;20229;-69
2023/05/10 09:30:27;;;;;;;19.63;10.85;;;;;;;;;;5046663;28;20186;-69
2023/05/10 09:32:53;;;;;;;18.90;10.23;;;;;;;;;;5039806;28;20193;-70
2023/05/10 09:35:21;;;;;;;16.30;9.48;;;;;;;;;;5041838;28;20715;-69
2023/05/10 09:37:48;;;;;;;16.95;9.75;;;;;;;;;;5033979;28;20193;-70
2023/05/10 09:40:16;;;;;;;15.32;9.50;;;;;;;;;;5038161;28;20586;-70
2023/05/10 09:42:50;;;;;;;18.70;9.77;;;;;;;;;;5049615;28;20693;-70
2023/05/10 09:45:16;;;;;;;14.50;9.75;;;;;;;;;;5044554;28;20182;-70
2023/05/10 09:47:41;;;;;;;14.60;9.43;;;;;;;;;;5048358;28;20228;-70
2023/05/10 09:50:07;;;;;;;17.05;9.98;;;;;;;;;;5040784;28;20194;-69
2023/05/10 09:52:59;;;;;;;17.02;10.57;;;;;;;;;;5039055;28;20186;-70
2023/05/10 09:55:44;;;;;;;18.15;10.00;;;;;;;;;;5047589;28;20579;-71
2023/05/10 09:58:10;;;;;;;15.98;10.13;;;;;;;;;;5044510;28;20553;-70
2023/05/10 10:00:38;;;;;;;20.27;11.43;;;;;;;;;;5041234;28;20229;-70
2023/05/10 10:03:04;;;;;;;14.45;9.18;;;;;;;;;;5049446;28;20185;-69
2023/05/10 10:05:33;;;;;;;14.20;8.63;;;;;;;;;;5051172;28;20625;-69
2023/05/10 10:08:00;;;;;;;11.95;8.27;;;;;;;;;;5031037;28;20194;-69
2023/05/10 10:10:27;;;;;;;12.60;8.73;;;;;;;;;;5044019;28;20194;-68
2023/05/10 10:12:53;;;;;;;12.50;8.52;;;;;;;;;;5036155;28;20193;-71
2023/05/10 10:15:20;;;;;;;13.40;9.13;;;;;;;;;;5036268;28;20575;-70
2023/05/10 10:17:47;;;;;;;17.08;9.93;;;;;;;;;;5060242;28;20182;-69
2023/05/10 10:20:13;;;;;;;17.42;10.70;;;;;;;;;;5037393;28;20272;-69
2023/05/10 10:22:38;;;;;;;17.33;10.30;;;;;;;;;;5031705;28;20185;-68
2023/05/10 10:25:05;;;;;;;14.40;10.00;;;;;;;;;;5047652;28;20193;-70
2023/05/10 10:27:56;;;;;;;17.00;10.70;;;;;;;;;;5041731;28;20193;-69
2023/05/10 10:30:31;;;;;;;18.05;10.85;;;;;;;;;;5035158;28;20630;-70
2023/05/10 10:33:02;;;;;;;16.77;10.50;;;;;;;;;;5043106;28;20192;-69
2023/05/10 10:35:30;;;;;;;13.60;9.40;;;;;;;;;;5039985;28;20190;-69
2023/05/10 10:37:56;;;;;;;12.55;8.00;;;;;;;;;;5040018;28;20190;-70
2023/05/10 10:40:29;;;;;;;16.20;9.00;;;;;;;;;;5038061;28;20229;-70
2023/05/10 10:42:55;;;;;;;10.48;7.13;;;;;;;;;;5034189;28;20190;-70
2023/05/10 10:45:22;;;;;;;11.57;7.45;;;;;;;;;;5045629;28;20189;-69
2023/05/10 10:47:47;;;;;;;10.98;7.20;;;;;;;;;;5053060;28;20233;-69
2023/05/10 10:50:13;;;;;;;10.55;6.78;;;;;;;;;;5046782;28;20583;-69
2023/05/10 10:52:40;;;;;;;9.80;6.47;;;;;;;;;;5034461;28;20667;-69
2023/05/10 10:55:10;;;;;;;9.80;6.60;;;;;;;;;;5048368;28;20352;-69
2023/05/10 10:58:00;;;;;;;9.88;6.40;;;;;;;;;;5037452;28;20625;-69
2023/05/10 11:00:33;;;;;;;10.70;6.82;;;;;;;;;;5032296;28;20217;-70
2023/05/10 11:03:02;;;;;;;12.02;7.00;;;;;;;;;;5029351;28;20578;-69
2023/05/10 11:05:44;;;;;;;12.15;6.18;;;;;;;;;;5035141;28;20190;-69
2023/05/10 11:08:13;;;;;;;14.55;6.85;;;;;;;;;;5034285;28;20186;-70
2023/05/10 11:10:48;;;;;;;12.57;7.18;;;;;;;;;;5046996;28;20173;-71
2023/05/10 11:13:14;;;;;;;8.98;6.90;;;;;;;;;;5047654;28;20235;-68
2023/05/10 11:15:40;;;;;;;9.63;6.72;;;;;;;;;;5035841;28;20189;-70
2023/05/10 11:18:21;;;;;;;9.38;6.30;;;;;;;;;;5038815;28;20217;-70
2023/05/10 11:21:05;;;;;;;8.20;5.47;;;;;;;;;;5032055;28;20334;-68
2023/05/10 11:23:56;;;;;;;7.15;5.18;;;;;;;;;;5034344;28;20192;-69
2023/05/10 11:26:25;;;;;;;9.52;5.88;;;;;;;;;;5048816;28;20205;-68
2023/05/10 11:28:51;;;;;;;9.02;5.97;;;;;;;;;;5049711;28;20195;-69
2023/05/10 11:31:18;;;;;;;11.35;6.35;;;;;;;;;;5046874;28;20544;-68
2023/05/10 11:33:48;;;;;;;10.60;6.65;;;;;;;;;;5048620;28;20618;-68
2023/05/10 11:36:15;;;;;;;12.45;6.38;;;;;;;;;;5037604;28;20201;-69
2023/05/10 11:38:41;;;;;;;9.55;6.40;;;;;;;;;;5043405;28;20225;-69
2023/05/10 11:41:10;;;;;;;8.75;6.20;;;;;;;;;;5042418;28;20596;-69
2023/05/10 11:43:38;;;;;;;12.73;7.18;;;;;;;;;;5032511;28;20189;-69
2023/05/10 11:46:07;;;;;;;9.43;6.45;;;;;;;;;;5048754;28;20959;-71
2023/05/10 11:48:32;;;;;;;12.18;7.18;;;;;;;;;;5046098;28;20216;-69
2023/05/10 11:50:58;;;;;;;14.00;8.55;;;;;;;;;;5039026;28;20352;-69
2023/05/10 11:53:27;;;;;;;13.57;8.52;;;;;;;;;;5045687;28;20209;-69
2023/05/10 11:55:52;;;;;;;12.98;8.38;;;;;;;;;;5043769;28;20216;-69
2023/05/10 11:58:18;;;;;;;12.77;6.88;;;;;;;;;;5048012;28;20557;-68
2023/05/10 12:00:45;;;;;;;11.07;6.45;;;;;;;;;;5045742;28;20233;-70
2023/05/10 12:03:10;;;;;;;11.23;6.45;;;;;;;;;;5048102;28;20181;-69
2023/05/10 12:05:36;;;;;;;10.48;5.78;;;;;;;;;;5047292;28;20666;-68
2023/05/10 12:08:19;;;;;;;8.95;5.90;;;;;;;;;;5032110;28;20645;-68
2023/05/10 12:10:44;;;;;;;11.50;6.28;;;;;;;;;;5047391;28;20201;-68
2023/05/10 12:13:14;;;;;;;8.55;5.70;;;;;;;;;;5032465;28;20614;-68
2023/05/10 12:15:40;;;;;;;9.27;5.70;;;;;;;;;;5035904;28;20547;-68
2023/05/10 12:18:08;;;;;;;11.23;6.13;;;;;;;;;;5036035;28;20200;-69
2023/05/10 12:20:33;;;;;;;8.98;6.55;;;;;;;;;;5035082;28;20213;-69
2023/05/10 12:23:01;;;;;;;9.30;6.70;;;;;;;;;;5046556;28;20196;-69
2023/05/10 12:25:31;;;;;;;9.43;6.35;;;;;;;;;;5045638;28;20198;-68
2023/05/10 12:28:00;;;;;;;9.57;6.70;;;;;;;;;;5046710;28;20225;-69
2023/05/10 12:30:27;;;;;;;12.27;7.40;;;;;;;;;;5032928;28;20653;-69
2023/05/10 12:33:00;;;;;;;8.75;5.95;;;;;;;;;;5036177;28;20243;-69
2023/05/10 12:35:26;;;;;;;9.52;6.32;;;;;;;;;;5047649;28;20313;-69
2023/05/10 12:37:51;;;;;;;6.22;4.70;;;;;;;;;;5028473;28;20269;-69
2023/05/10 12:40:17;;;;;;;7.40;5.13;;;;;;;;;;5029969;28;20205;-69
2023/05/10 12:42:44;;;;;;;6.20;4.93;;;;;;;;;;5040711;28;20188;-70
2023/05/10 12:45:11;;;;;;;11.35;5.60;;;;;;;;;;5033936;28;20596;-69
2023/05/10 12:47:37;;;;;;;8.40;5.50;;;;;;;;;;5043906;28;20262;-69
2023/05/10 12:50:03;;;;;;;9.30;6.40;;;;;;;;;;5047301;28;20178;-68
2023/05/10 12:52:28;;;;;;;10.85;6.38;;;;;;;;;;5042389;28;20196;-69
2023/05/10 12:54:54;;;;;;;11.93;6.60;;;;;;;;;;5046135;28;20188;-68
2023/05/10 12:57:23;;;;;;;7.93;5.50;;;;;;;;;;5039697;28;20789;-69
2023/05/10 12:59:48;;;;;;;7.43;5.68;;;;;;;;;;5043687;28;20201;-69
2023/05/10 13:02:14;;;;;;;6.93;5.03;;;;;;;;;;5037302;28;20627;-69
2023/05/10 13:04:40;;;;;;;7.97;5.63;;;;;;;;;;5030739;28;20304;-69
2023/05/10 13:07:06;;;;;;;8.27;6.13;;;;;;;;;;5031511;28;20186;-69
2023/05/10 13:09:32;;;;;;;7.57;5.30;;;;;;;;;;5027841;28;20182;-69
2023/05/10 13:11:57;;;;;;;7.20;5.80;;;;;;;;;;5038398;28;20694;-69
2023/05/10 13:14:24;;;;;;;7.80;4.75;;;;;;;;;;5028494;28;20486;-68
2023/05/10 13:16:50;;;;;;;6.60;4.35;;;;;;;;;;5037672;28;20186;-68
2023/05/10 13:19:16;;;;;;;5.05;3.92;;;;;;;;;;5027819;28;20228;-68
2023/05/10 13:21:42;;;;;;;7.78;4.70;;;;;;;;;;5038294;28;20216;-69
2023/05/10 13:24:07;;;;;;;5.97;4.35;;;;;;;;;;5037298;28;20193;-69
2023/05/10 13:26:33;;;;;;;4.60;3.83;;;;;;;;;;5041023;28;20194;-70
2023/05/10 13:28:58;;;;;;;6.07;3.90;;;;;;;;;;5039348;28;20265;-69
2023/05/10 13:31:24;;;;;;;4.75;3.33;;;;;;;;;;5039393;28;20256;-69
2023/05/10 13:33:49;;;;;;;4.68;3.85;;;;;;;;;;5036173;28;20195;-69
2023/05/10 13:36:15;;;;;;;5.57;4.57;;;;;;;;;;5042253;28;20277;-70
2023/05/10 13:38:40;;;;;;;7.05;4.18;;;;;;;;;;5041049;28;20186;-69
2023/05/10 13:41:05;;;;;;;5.85;4.55;;;;;;;;;;5041883;28;20561;-70
2023/05/10 13:43:31;;;;;;;6.90;4.68;;;;;;;;;;5039748;28;20197;-69
2023/05/10 13:45:56;;;;;;;6.43;4.25;;;;;;;;;;5048259;28;20229;-70
2023/05/10 13:48:22;;;;;;;8.48;4.45;;;;;;;;;;5050839;28;20653;-69
2023/05/10 13:50:47;;;;;;;5.78;4.32;;;;;;;;;;5041462;28;20178;-70
2023/05/10 13:53:14;;;;;;;6.68;4.47;;;;;;;;;;5047030;28;20186;-69
2023/05/10 13:55:39;;;;;;;6.50;4.82;;;;;;;;;;5049504;28;20731;-69
2023/05/10 13:58:05;;;;;;;7.82;5.07;;;;;;;;;;5034116;28;20201;-70
2023/05/10 14:00:30;;;;;;;7.45;5.30;;;;;;;;;;5035823;28;20328;-69
2023/05/10 14:02:55;;;;;;;8.73;5.78;;;;;;;;;;5041136;28;20189;-70
2023/05/10 14:05:21;;;;;;;9.30;5.82;;;;;;;;;;5048539;28;20451;-69
2023/05/10 14:07:47;;;;;;;10.88;6.13;;;;;;;;;;5042310;28;20196;-70
2023/05/10 14:10:12;;;;;;;8.32;5.68;;;;;;;;;;5044948;28;20771;-69
2023/05/10 14:12:37;;;;;;;11.98;6.53;;;;;;;;;;5041387;28;20634;-70
2023/05/10 14:15:05;;;;;;;10.00;6.07;;;;;;;;;;5045903;28;20193;-69
2023/05/10 14:17:31;;;;;;;10.60;6.35;;;;;;;;;;5045478;28;20684;-70
2023/05/10 14:19:56;;;;;;;9.90;7.47;;;;;;;;;;5033826;28;20202;-70
2023/05/10 14:22:22;;;;;;;9.68;6.72;;;;;;;;;;5042463;28;20363;-70